Time;durP1;ratioP1;P1;durP2;ratioP2;P2;SDS_P1;SDS_P2;PMS_P1;PMS_P2;Temp;Humidity;BMP_temperature;BMP_pressure;BME280_temperature;BME280_humidity;BME280_pressure;Samples;Min_cycle;Max_cycle;Signal;HPM_P1;HPM_P2
2021/10/07 04:45:42;;;;;;;22.15;6.70;;;16.10;99.90;;;;;;6076948;22;20267;-81
2021/10/07 04:48:09;;;;;;;28.17;6.70;;;16.00;99.90;;;;;;6115671;22;20032;-80
2021/10/07 04:50:36;;;;;;;32.13;7.68;;;16.00;99.90;;;;;;6118531;22;20025;-81
2021/10/07 04:53:03;;;;;;;28.45;7.13;;;16.00;99.90;;;;;;6118253;22;20033;-81
2021/10/07 04:55:30;;;;;;;23.95;7.40;;;16.00;99.90;;;;;;6117553;23;20017;-82
2021/10/07 04:57:57;;;;;;;27.27;7.88;;;16.00;99.90;;;;;;6118681;22;20426;-81
2021/10/07 05:00:25;;;;;;;24.02;7.95;;;16.00;99.90;;;;;;6117758;22;20015;-82
2021/10/07 05:02:52;;;;;;;28.70;6.80;;;16.00;99.90;;;;;;6092659;23;20022;-82
2021/10/07 05:05:19;;;;;;;27.15;8.10;;;16.10;99.90;;;;;;6116415;22;20064;-81
2021/10/07 05:07:46;;;;;;;30.73;8.23;;;16.00;99.90;;;;;;6118057;23;20087;-82
2021/10/07 05:10:13;;;;;;;22.70;7.07;;;16.00;99.90;;;;;;6117657;22;20022;-82
2021/10/07 05:12:40;;;;;;;23.67;7.60;;;16.10;99.90;;;;;;6118677;22;20116;-81
2021/10/07 05:15:09;;;;;;;28.90;8.32;;;16.10;99.90;;;;;;6092014;23;20487;-81
2021/10/07 05:17:37;;;;;;;26.45;7.30;;;16.10;99.90;;;;;;6117026;22;20390;-83
2021/10/07 05:20:06;;;;;;;34.67;8.07;;;16.00;99.90;;;;;;6117564;22;20561;-83
2021/10/07 05:22:33;;;;;;;;;;;16.10;99.90;;;;;;6118473;22;20525;-81
2021/10/07 05:25:00;;;;;;;28.88;7.82;;;16.00;99.90;;;;;;6118535;22;20439;-81
2021/10/07 05:27:27;;;;;;;21.25;6.93;;;16.00;99.90;;;;;;6118463;22;20341;-81
2021/10/07 05:29:53;;;;;;;29.02;7.68;;;16.00;99.90;;;;;;6120300;23;20037;-82
2021/10/07 05:32:20;;;;;;;25.40;7.47;;;16.00;99.90;;;;;;6092660;23;20395;-83
2021/10/07 05:34:47;;;;;;;29.30;7.72;;;16.00;99.90;;;;;;6119512;23;20018;-82
2021/10/07 05:37:18;;;;;;;22.90;6.88;;;16.00;99.90;;;;;;6089280;23;20026;-82
2021/10/07 05:39:44;;;;;;;26.40;7.85;;;16.00;99.90;;;;;;6118899;23;20079;-81
2021/10/07 05:42:12;;;;;;;29.00;8.25;;;16.10;99.90;;;;;;6118056;23;20026;-81
2021/10/07 05:44:39;;;;;;;27.92;8.05;;;16.00;99.90;;;;;;6118196;23;20022;-82
2021/10/07 05:47:06;;;;;;;17.40;6.82;;;16.00;99.90;;;;;;6090965;22;20030;-82
2021/10/07 05:49:33;;;;;;;21.13;6.85;;;16.00;99.90;;;;;;6119624;23;20080;-83
2021/10/07 05:52:00;;;;;;;25.95;6.28;;;16.00;99.90;;;;;;6119491;23;20124;-83
2021/10/07 05:54:27;;;;;;;21.20;6.43;;;16.00;99.90;;;;;;6118955;23;20079;-83
2021/10/07 05:56:54;;;;;;;19.48;6.00;;;16.00;99.90;;;;;;6119084;22;20025;-83
2021/10/07 05:59:21;;;;;;;18.58;6.55;;;16.00;99.90;;;;;;6118726;22;20022;-83
2021/10/07 06:01:48;;;;;;;21.85;6.45;;;16.10;99.90;;;;;;6093946;23;20029;-83
2021/10/07 06:04:15;;;;;;;16.15;5.85;;;16.10;99.90;;;;;;6118815;23;20091;-83
2021/10/07 06:06:45;;;;;;;18.90;6.35;;;16.10;99.90;;;;;;6119104;22;20079;-81
2021/10/07 06:09:14;;;;;;;17.70;5.80;;;16.10;99.90;;;;;;6119222;22;20068;-81
2021/10/07 06:11:41;;;;;;;21.23;6.13;;;16.10;99.90;;;;;;6119108;22;20018;-82
2021/10/07 06:14:08;;;;;;;20.88;6.10;;;16.10;99.90;;;;;;6118818;22;20095;-81
2021/10/07 06:16:39;;;;;;;15.00;5.18;;;16.10;99.90;;;;;;6119462;23;20018;-82
2021/10/07 06:19:10;;;;;;;22.75;5.68;;;16.10;99.90;;;;;;6119583;23;20415;-82
2021/10/07 06:21:38;;;;;;;15.13;5.22;;;16.10;99.90;;;;;;6091947;23;20031;-83
2021/10/07 06:24:05;;;;;;;14.95;5.55;;;16.10;99.90;;;;;;6118589;22;20573;-82
2021/10/07 06:26:40;;;;;;;17.75;5.35;;;16.10;99.90;;;;;;6119411;22;20100;-84
2021/10/07 06:29:07;;;;;;;20.80;4.90;;;16.10;99.90;;;;;;6092808;23;20376;-84
2021/10/07 06:31:35;;;;;;;20.17;5.13;;;16.10;99.90;;;;;;6118368;22;20075;-83
2021/10/07 06:34:02;;;;;;;14.02;4.93;;;16.10;99.90;;;;;;6119031;23;20079;-84
2021/10/07 06:36:30;;;;;;;15.48;5.15;;;16.10;99.90;;;;;;6118667;23;20026;-84
2021/10/07 06:38:57;;;;;;;15.10;5.25;;;16.10;99.90;;;;;;6118817;22;20487;-84
2021/10/07 06:41:24;;;;;;;16.92;5.18;;;16.10;99.90;;;;;;6117877;22;20394;-83
2021/10/07 06:43:51;;;;;;;18.95;5.28;;;16.10;99.90;;;;;;6120105;23;20018;-83
2021/10/07 06:46:18;;;;;;;13.00;4.28;;;16.10;99.90;;;;;;6117591;22;20025;-82
2021/10/07 06:48:45;;;;;;;20.10;5.15;;;16.10;99.90;;;;;;6118214;22;20028;-83
2021/10/07 06:51:14;;;;;;;19.40;5.78;;;16.10;99.90;;;;;;6117195;22;20084;-83
2021/10/07 06:53:41;;;;;;;23.67;6.13;;;16.10;99.90;;;;;;6093001;23;20491;-82
2021/10/07 06:56:08;;;;;;;20.88;6.10;;;16.10;99.90;;;;;;6118565;23;20018;-83
2021/10/07 06:58:35;;;;;;;17.70;6.15;;;16.10;99.90;;;;;;6118667;23;20018;-82
2021/10/07 07:01:02;;;;;;;18.45;6.57;;;16.10;99.90;;;;;;6118620;23;20033;-83
2021/10/07 07:03:30;;;;;;;25.80;8.03;;;16.10;99.90;;;;;;6092424;23;20021;-83
2021/10/07 07:05:57;;;;;;;21.35;7.55;;;16.10;99.90;;;;;;6119542;22;20022;-82
2021/10/07 07:08:24;;;;;;;23.33;7.03;;;16.10;99.90;;;;;;6118594;22;20026;-82
2021/10/07 07:10:53;;;;;;;21.00;7.38;;;16.20;99.90;;;;;;6092902;23;20329;-83
2021/10/07 07:13:20;;;;;;;18.50;8.20;;;16.20;99.90;;;;;;6117936;22;20100;-83
2021/10/07 07:15:47;;;;;;;26.42;8.20;;;16.20;99.90;;;;;;6118522;23;20132;-83
2021/10/07 07:18:14;;;;;;;23.25;8.32;;;16.20;99.90;;;;;;6118061;23;20052;-83
2021/10/07 07:20:42;;;;;;;21.88;8.23;;;16.20;99.90;;;;;;6118800;22;20360;-83
2021/10/07 07:23:10;;;;;;;21.30;7.53;;;16.20;99.90;;;;;;6118145;22;20538;-84
2021/10/07 07:25:36;;;;;;;24.75;8.63;;;16.20;99.90;;;;;;6119215;22;20079;-83
2021/10/07 07:28:04;;;;;;;18.42;8.05;;;16.20;99.90;;;;;;6118305;22;20025;-83
2021/10/07 07:30:31;;;;;;;19.75;7.57;;;16.30;99.90;;;;;;6118527;22;20026;-83
2021/10/07 07:32:58;;;;;;;15.45;7.85;;;16.30;99.90;;;;;;6116762;22;20548;-83
2021/10/07 07:35:29;;;;;;;22.63;7.88;;;16.30;99.90;;;;;;6116536;22;20030;-83
2021/10/07 07:37:57;;;;;;;18.05;7.90;;;16.30;99.90;;;;;;6118199;23;20025;-83
2021/10/07 07:40:25;;;;;;;;;;;16.40;99.90;;;;;;6117496;22;20029;-82
2021/10/07 07:42:52;;;;;;;18.48;8.75;;;16.40;99.90;;;;;;6117644;22;19975;-83
2021/10/07 07:45:19;;;;;;;23.17;9.35;;;16.30;99.90;;;;;;6116785;23;20029;-83
2021/10/07 07:47:55;;;;;;;24.00;8.95;;;16.40;99.90;;;;;;6094284;23;20022;-83
2021/10/07 07:50:24;;;;;;;19.55;6.95;;;16.40;99.90;;;;;;6117036;22;20033;-83
2021/10/07 07:52:52;;;;;;;;;;;16.50;99.90;;;;;;6118029;22;20026;-83
2021/10/07 07:55:21;;;;;;;14.45;4.90;;;16.50;99.90;;;;;;6117159;22;19996;-83
2021/10/07 07:57:49;;;;;;;14.50;6.40;;;16.50;99.90;;;;;;6117398;23;20037;-82
2021/10/07 08:00:16;;;;;;;15.68;7.07;;;16.50;99.90;;;;;;6116437;22;20026;-83
2021/10/07 08:02:43;;;;;;;16.27;6.45;;;16.60;99.90;;;;;;6117642;23;20035;-83
2021/10/07 08:05:11;;;;;;;19.45;6.53;;;16.70;99.90;;;;;;6116601;22;20041;-83
2021/10/07 08:07:38;;;;;;;15.98;5.65;;;16.70;99.90;;;;;;6117765;22;20029;-83
2021/10/07 08:10:05;;;;;;;16.88;5.70;;;16.70;99.90;;;;;;6117879;23;20053;-82
2021/10/07 08:12:33;;;;;;;15.18;5.68;;;16.80;99.90;;;;;;6118645;23;20021;-83
2021/10/07 08:15:03;;;;;;;12.75;5.10;;;16.80;99.90;;;;;;6118709;22;20018;-83
2021/10/07 08:17:30;;;;;;;15.27;6.38;;;16.90;99.90;;;;;;6118297;23;20014;-83
2021/10/07 08:19:58;;;;;;;9.90;3.40;;;16.90;99.90;;;;;;6119060;22;20022;-83
2021/10/07 08:22:25;;;;;;;10.00;3.60;;;16.90;99.90;;;;;;6118417;22;20034;-83
2021/10/07 08:24:52;;;;;;;6.20;2.25;;;17.00;99.90;;;;;;6118298;22;20018;-82
2021/10/07 08:27:20;;;;;;;3.67;1.55;;;17.00;99.90;;;;;;6117387;23;20053;-84
2021/10/07 08:29:47;;;;;;;5.65;1.40;;;17.00;99.90;;;;;;6118459;22;20034;-83
2021/10/07 08:32:14;;;;;;;4.97;1.42;;;17.00;99.90;;;;;;6118809;22;20018;-83
2021/10/07 08:34:41;;;;;;;5.18;1.42;;;17.10;99.90;;;;;;6118394;23;20026;-83
2021/10/07 08:37:08;;;;;;;5.25;1.80;;;17.20;99.90;;;;;;6117944;22;20026;-82
2021/10/07 08:39:35;;;;;;;5.45;1.75;;;17.20;99.90;;;;;;6118642;22;20026;-82
2021/10/07 08:42:03;;;;;;;4.30;1.27;;;17.30;99.90;;;;;;6118235;23;20108;-82
2021/10/07 08:44:31;;;;;;;5.28;1.40;;;17.30;99.90;;;;;;6092391;23;20025;-82
2021/10/07 08:46:58;;;;;;;5.05;1.50;;;17.40;99.90;;;;;;6118414;23;20084;-82
2021/10/07 08:49:29;;;;;;;4.43;1.30;;;17.40;99.90;;;;;;6117705;23;20067;-82
2021/10/07 08:51:56;;;;;;;5.43;1.20;;;17.50;99.90;;;;;;6118859;23;20399;-82
2021/10/07 08:54:22;;;;;;;4.38;1.20;;;17.50;99.90;;;;;;6118507;22;20079;-82
2021/10/07 08:56:49;;;;;;;5.13;1.20;;;17.50;99.90;;;;;;6117982;22;20026;-82
2021/10/07 08:59:18;;;;;;;3.58;1.02;;;17.50;99.90;;;;;;6117973;23;20499;-82
2021/10/07 09:01:48;;;;;;;3.40;1.20;;;17.60;99.90;;;;;;6119425;22;20101;-81
2021/10/07 09:04:21;;;;;;;5.15;1.40;;;17.60;99.90;;;;;;6117893;23;20487;-82
2021/10/07 09:07:09;;;;;;;7.80;1.70;;;17.60;99.90;;;;;;6092543;22;20075;-82
2021/10/07 09:09:38;;;;;;;5.57;1.80;;;17.70;99.90;;;;;;6118427;22;20021;-82
2021/10/07 09:12:08;;;;;;;4.85;1.42;;;17.70;99.90;;;;;;6117419;23;20553;-81
2021/10/07 09:14:40;;;;;;;6.38;1.40;;;17.70;99.90;;;;;;6118996;23;20080;-82
2021/10/07 09:17:09;;;;;;;7.60;1.60;;;17.80;99.90;;;;;;6118014;22;20079;-82
2021/10/07 09:19:42;;;;;;;7.50;1.38;;;17.80;99.90;;;;;;6118674;22;20092;-82
2021/10/07 09:22:14;;;;;;;9.75;1.50;;;17.70;99.90;;;;;;6117907;22;20689;-83
2021/10/07 09:24:44;;;;;;;6.93;1.48;;;17.80;99.90;;;;;;6118951;22;20044;-82
2021/10/07 09:27:13;;;;;;;8.13;1.40;;;17.80;99.90;;;;;;6117426;23;20018;-81
2021/10/07 09:29:55;;;;;;;7.50;1.30;;;17.80;99.90;;;;;;6118790;22;20018;-82
2021/10/07 09:32:50;;;;;;;8.30;1.38;;;17.80;99.90;;;;;;6118014;23;20496;-82
2021/10/07 09:35:19;;;;;;;8.95;1.52;;;17.90;99.90;;;;;;6117834;23;20418;-82
2021/10/07 09:37:57;;;;;;;10.18;1.20;;;17.90;99.90;;;;;;6119091;22;20071;-82
2021/10/07 09:40:26;;;;;;;7.65;1.63;;;17.90;99.90;;;;;;6117845;23;20022;-81
2021/10/07 09:42:55;;;;;;;12.20;1.95;;;17.90;99.90;;;;;;6118591;23;20022;-82
2021/10/07 09:45:28;;;;;;;9.40;1.42;;;18.00;99.90;;;;;;6118013;22;20079;-82
2021/10/07 09:48:04;;;;;;;5.65;1.65;;;18.00;99.90;;;;;;6118702;23;20423;-82
2021/10/07 09:50:56;;;;;;;8.15;1.45;;;18.10;99.90;;;;;;6098035;23;20021;-82
2021/10/07 09:53:26;;;;;;;6.93;1.23;;;18.10;99.90;;;;;;6117631;22;20025;-82
2021/10/07 09:55:54;;;;;;;10.00;1.48;;;18.20;99.90;;;;;;6118382;22;20096;-83
2021/10/07 09:58:24;;;;;;;7.35;1.35;;;18.20;99.90;;;;;;6118032;23;20029;-82
2021/10/07 10:00:55;;;;;;;6.65;1.50;;;18.20;99.90;;;;;;6118340;22;20522;-82
2021/10/07 10:03:24;;;;;;;5.88;1.27;;;18.30;99.90;;;;;;6117518;22;20083;-82
2021/10/07 10:05:53;;;;;;;12.27;1.65;;;18.40;99.90;;;;;;6119035;22;20022;-83
2021/10/07 10:08:20;;;;;;;;;;;18.40;99.90;;;;;;6118009;22;20422;-83
2021/10/07 10:10:49;;;;;;;9.35;1.88;;;18.40;99.90;;;;;;6117789;22;19917;-82
2021/10/07 10:13:16;;;;;;;8.55;1.30;;;18.40;99.90;;;;;;6117786;23;20018;-83
2021/10/07 10:15:44;;;;;;;6.82;1.33;;;18.40;99.90;;;;;;6118816;23;20025;-83
2021/10/07 10:18:15;;;;;;;7.90;1.48;;;18.40;99.90;;;;;;6118038;22;20068;-80
2021/10/07 10:20:53;;;;;;;6.25;1.20;;;18.40;99.90;;;;;;6088672;22;20026;-81
2021/10/07 10:23:37;;;;;;;7.77;1.53;;;18.40;99.90;;;;;;6112685;22;20026;-81
2021/10/07 10:26:46;;;;;;;6.60;1.15;;;18.40;99.90;;;;;;6032164;23;20488;-81
2021/10/07 10:30:23;;;;;;;6.07;1.23;;;18.50;99.90;;;;;;6104669;22;20044;-81
2021/10/07 10:33:50;;;;;;;5.70;1.30;;;18.50;99.90;;;;;;6035145;23;20054;-81
2021/10/07 10:36:54;;;;;;;6.53;1.20;;;18.60;99.90;;;;;;6101464;22;20032;-81
2021/10/07 10:39:37;;;;;;;6.25;1.20;;;18.70;99.90;;;;;;6047371;23;20022;-81
2021/10/07 10:42:26;;;;;;;8.30;1.42;;;18.70;99.90;;;;;;6060144;23;20442;-81
2021/10/07 10:44:56;;;;;;;6.47;1.15;;;18.80;99.90;;;;;;6093839;23;20018;-80
2021/10/07 10:47:31;;;;;;;5.25;1.20;;;18.80;99.90;;;;;;6088410;22;20037;-79
2021/10/07 10:50:37;;;;;;;5.03;1.08;;;18.80;99.90;;;;;;6114813;23;20032;-81
2021/10/07 10:53:23;;;;;;;12.52;1.88;;;18.80;99.90;;;;;;6044519;23;20038;-81
2021/10/07 11:04:36;;;;;;;6.22;1.00;;;18.90;99.90;;;;;;5915246;23;20122;-83
2021/10/07 11:07:16;;;;;;;3.38;0.60;;;19.00;99.90;;;;;;6002681;23;20905;-83
2021/10/07 11:10:00;;;;;;;2.95;0.55;;;19.10;99.90;;;;;;6004385;23;20032;-83
2021/10/07 11:12:56;;;;;;;4.63;0.80;;;19.20;99.90;;;;;;6003850;23;20024;-83
2021/10/07 11:15:26;;;;;;;2.80;0.75;;;19.20;99.90;;;;;;6004247;23;20032;-84
2021/10/07 11:17:55;;;;;;;3.83;0.80;;;19.20;99.90;;;;;;6004329;23;20050;-84
2021/10/07 11:20:30;;;;;;;6.57;0.90;;;19.20;99.90;;;;;;6004179;23;20027;-83
2021/10/07 11:23:01;;;;;;;3.10;0.70;;;19.20;99.90;;;;;;6001999;23;20024;-84
2021/10/07 11:25:29;;;;;;;4.97;0.90;;;19.20;99.90;;;;;;5999864;23;20424;-83
2021/10/07 11:27:58;;;;;;;3.90;0.80;;;19.10;99.90;;;;;;6000701;23;20031;-83
2021/10/07 11:30:28;;;;;;;3.17;0.80;;;19.10;99.90;;;;;;5999806;23;20087;-83
2021/10/07 11:32:57;;;;;;;3.72;0.88;;;19.10;99.90;;;;;;5977363;23;20052;-83
2021/10/07 11:35:25;;;;;;;3.60;0.73;;;19.10;99.90;;;;;;6000966;23;20083;-84
2021/10/07 11:37:56;;;;;;;3.38;0.70;;;19.20;99.90;;;;;;6074466;23;20084;-83
2021/10/07 11:40:43;;;;;;;2.60;0.73;;;19.20;99.90;;;;;;6094465;23;20447;-83
2021/10/07 11:43:22;;;;;;;2.95;0.57;;;19.30;99.90;;;;;;6118166;23;20079;-83
2021/10/07 11:45:52;;;;;;;2.75;0.55;;;19.30;99.90;;;;;;6119382;22;20030;-83
2021/10/07 11:48:19;;;;;;;1.92;0.40;;;19.30;99.90;;;;;;6118569;22;20026;-83
2021/10/07 11:50:55;;;;;;;2.05;0.50;;;19.40;99.90;;;;;;6119217;22;20079;-83
2021/10/07 11:53:35;;;;;;;5.05;2.13;;;19.40;99.90;;;;;;6118164;22;20483;-83
2021/10/07 11:56:12;;;;;;;3.97;1.00;;;19.50;99.90;;;;;;6093237;23;20072;-82
2021/10/07 11:58:39;;;;;;;3.55;0.65;;;19.50;99.90;;;;;;6118982;23;20522;-82
2021/10/07 12:01:09;;;;;;;2.40;1.07;;;19.50;99.90;;;;;;6118722;22;20026;-82
2021/10/07 12:03:37;;;;;;;1.00;0.45;;;19.60;99.90;;;;;;6119664;23;20067;-82
2021/10/07 12:06:13;;;;;;;4.00;0.85;;;19.60;99.90;;;;;;6118886;23;20049;-83
2021/10/07 12:08:44;;;;;;;2.53;0.93;;;19.60;99.90;;;;;;6094153;23;20014;-82
2021/10/07 12:11:16;;;;;;;3.35;0.77;;;19.70;99.90;;;;;;6118475;23;20026;-81
2021/10/07 12:13:50;;;;;;;2.42;0.60;;;19.70;99.90;;;;;;6118797;23;20029;-82
2021/10/07 12:16:31;;;;;;;3.88;0.52;;;19.80;99.90;;;;;;6118026;23;20018;-84
2021/10/07 12:19:10;;;;;;;3.47;0.77;;;19.80;99.90;;;;;;6093150;23;20064;-83
2021/10/07 12:21:39;;;;;;;3.22;0.70;;;19.80;99.90;;;;;;6118084;22;20406;-83
2021/10/07 12:24:11;;;;;;;3.97;0.85;;;19.80;99.90;;;;;;6091900;23;20026;-83
2021/10/07 12:26:40;;;;;;;3.55;0.80;;;19.80;99.90;;;;;;6093015;23;20018;-83
2021/10/07 12:29:15;;;;;;;4.10;0.70;;;19.90;99.90;;;;;;6118212;23;20088;-84
2021/10/07 12:31:57;;;;;;;1.30;0.30;;;19.90;99.90;;;;;;6093322;23;20041;-84
2021/10/07 12:34:29;;;;;;;1.92;0.32;;;19.90;99.90;;;;;;6092774;23;20026;-84
2021/10/07 12:36:59;;;;;;;1.52;0.57;;;20.00;99.90;;;;;;6118947;22;20022;-82
2021/10/07 12:39:29;;;;;;;2.92;0.50;;;20.00;99.90;;;;;;6117591;22;20022;-84
2021/10/07 12:42:17;;;;;;;2.22;0.50;;;20.00;99.90;;;;;;6118635;22;20076;-84
2021/10/07 12:44:44;;;;;;;;;;;20.10;99.90;;;;;;6119371;23;20025;-84
2021/10/07 12:47:18;;;;;;;1.55;0.52;;;20.10;99.90;;;;;;6117902;22;19943;-83
2021/10/07 12:49:48;;;;;;;2.35;0.47;;;20.20;99.90;;;;;;6119030;22;20075;-84
2021/10/07 12:52:25;;;;;;;4.30;0.52;;;20.20;99.90;;;;;;6092933;23;20022;-83
2021/10/07 12:55:03;;;;;;;3.40;0.60;;;20.10;99.90;;;;;;6093092;23;20033;-83
2021/10/07 12:57:44;;;;;;;4.47;0.60;;;20.10;99.90;;;;;;6091914;23;20016;-84
2021/10/07 13:00:22;;;;;;;1.10;0.30;;;20.10;99.90;;;;;;6118838;22;20026;-83
2021/10/07 13:02:50;;;;;;;2.25;0.38;;;20.10;99.90;;;;;;6118628;23;20022;-83
2021/10/07 13:05:26;;;;;;;1.30;0.45;;;20.10;99.90;;;;;;6118205;22;20018;-83
2021/10/07 13:08:06;;;;;;;2.50;0.45;;;20.00;99.90;;;;;;6119382;23;20029;-84
2021/10/07 13:10:36;;;;;;;0.82;0.30;;;20.00;99.90;;;;;;6119144;23;20014;-84
2021/10/07 13:13:03;;;;;;;0.63;0.25;;;20.00;99.90;;;;;;6079347;23;20026;-84
2021/10/07 13:15:42;;;;;;;0.63;0.32;;;19.90;99.90;;;;;;6092863;23;20071;-83
2021/10/07 13:18:10;;;;;;;2.33;0.60;;;19.90;99.90;;;;;;6118550;23;20042;-83
2021/10/07 13:20:37;;;;;;;2.53;0.40;;;19.90;99.90;;;;;;6119243;23;20026;-84
2021/10/07 13:23:04;;;;;;;1.40;0.30;;;19.90;99.90;;;;;;6118706;23;20026;-83
2021/10/07 13:25:37;;;;;;;4.18;0.73;;;19.90;99.90;;;;;;6119123;23;20550;-84
2021/10/07 13:28:04;;;;;;;2.97;0.70;;;19.90;99.90;;;;;;6119494;23;20030;-84
2021/10/07 13:30:31;;;;;;;2.10;0.65;;;19.80;99.90;;;;;;6118681;22;20084;-84
2021/10/07 13:32:59;;;;;;;4.00;1.20;;;19.90;99.90;;;;;;6119116;23;20042;-83
2021/10/07 13:38:03;;;;;;;5.18;0.80;;;19.90;99.90;;;;;;6116251;22;20025;-82
2021/10/07 13:40:39;;;;;;;3.55;0.90;;;19.90;99.90;;;;;;6106586;22;20102;-82
2021/10/07 13:43:37;;;;;;;2.22;0.50;;;19.80;99.90;;;;;;6116793;22;20087;-82
2021/10/07 13:46:05;;;;;;;2.90;0.70;;;19.80;99.90;;;;;;6117690;22;20240;-83
2021/10/07 13:48:32;;;;;;;1.35;0.22;;;19.60;99.90;;;;;;6092740;23;20018;-83
2021/10/07 13:50:59;;;;;;;1.63;0.28;;;19.60;99.90;;;;;;6119129;23;20033;-83
2021/10/07 13:53:30;;;;;;;2.33;0.60;;;19.50;99.90;;;;;;6093073;23;20405;-83
2021/10/07 13:55:57;;;;;;;1.98;0.70;;;19.50;99.90;;;;;;6118370;23;20411;-83
2021/10/07 13:58:24;;;;;;;1.58;0.55;;;19.60;99.90;;;;;;6091801;23;20103;-83
2021/10/07 14:00:51;;;;;;;1.55;0.55;;;19.50;99.90;;;;;;6118197;22;20022;-83
2021/10/07 14:03:18;;;;;;;2.38;0.38;;;19.60;99.90;;;;;;6117270;22;20555;-83
2021/10/07 14:05:47;;;;;;;2.03;0.40;;;19.60;99.90;;;;;;6092782;23;20024;-84
2021/10/07 14:08:14;;;;;;;1.48;0.70;;;19.60;99.90;;;;;;6092301;23;20022;-83
2021/10/07 14:10:45;;;;;;;2.55;0.65;;;19.60;99.90;;;;;;6118136;22;20420;-83
2021/10/07 14:13:16;;;;;;;2.63;0.60;;;19.60;99.90;;;;;;6092621;23;20605;-82
2021/10/07 14:18:18;;;;;;;3.40;0.80;;;19.70;99.90;;;;;;6115276;22;20472;-83
2021/10/07 14:20:45;;;;;;;1.88;0.60;;;19.70;99.90;;;;;;6116851;22;20036;-83
2021/10/07 14:23:12;;;;;;;3.92;0.70;;;19.70;99.90;;;;;;6117650;22;20026;-83
2021/10/07 14:25:39;;;;;;;4.18;1.85;;;19.70;99.90;;;;;;6116358;23;20029;-82
2021/10/07 14:28:06;;;;;;;1.45;0.45;;;19.80;99.90;;;;;;6117256;23;20104;-81
2021/10/07 14:30:35;;;;;;;2.75;0.80;;;19.80;99.90;;;;;;6092584;23;20541;-83
2021/10/07 14:33:03;;;;;;;2.10;0.53;;;19.80;99.90;;;;;;6092616;23;20026;-83
2021/10/07 14:35:30;;;;;;;0.75;0.47;;;19.80;99.90;;;;;;6117601;22;20626;-83
2021/10/07 14:37:58;;;;;;;1.80;0.40;;;19.80;99.90;;;;;;6118403;23;20021;-84
2021/10/07 14:40:25;;;;;;;1.90;0.70;;;19.80;99.90;;;;;;6116873;22;20695;-84
2021/10/07 14:42:53;;;;;;;1.92;0.50;;;19.80;99.90;;;;;;6118020;23;20018;-83
2021/10/07 14:45:21;;;;;;;0.77;0.40;;;20.00;99.90;;;;;;6116918;23;20083;-82
2021/10/07 14:47:49;;;;;;;1.80;0.50;;;20.00;99.90;;;;;;6117668;22;20021;-83
2021/10/07 14:50:18;;;;;;;1.27;0.30;;;20.10;99.90;;;;;;6117695;22;20026;-81
2021/10/07 14:53:06;;;;;;;2.50;0.60;;;20.00;99.90;;;;;;6117717;23;20054;-81
2021/10/07 14:55:33;;;;;;;;;;;20.10;99.90;;;;;;6117879;22;20331;-82
2021/10/07 14:58:00;;;;;;;1.65;0.40;;;20.10;99.90;;;;;;6117875;23;19982;-82
2021/10/07 15:00:27;;;;;;;1.88;0.60;;;20.00;99.90;;;;;;6090860;23;20018;-82
2021/10/07 15:02:54;;;;;;;2.33;0.32;;;20.00;99.90;;;;;;6092434;23;20025;-81
2021/10/07 15:05:21;;;;;;;4.30;0.55;;;19.90;99.90;;;;;;6116925;22;20541;-82
2021/10/07 15:07:48;;;;;;;1.15;0.30;;;19.80;99.90;;;;;;6118192;22;20026;-81
2021/10/07 15:10:15;;;;;;;1.50;0.25;;;19.70;99.90;;;;;;6117128;23;20022;-83
2021/10/07 15:12:42;;;;;;;2.17;0.28;;;19.60;99.90;;;;;;6092287;23;20021;-83
2021/10/07 15:15:11;;;;;;;1.42;0.20;;;19.50;99.90;;;;;;6116045;22;20026;-83
2021/10/07 15:17:41;;;;;;;2.05;0.30;;;19.50;99.90;;;;;;6117284;22;20034;-83
2021/10/07 15:20:08;;;;;;;1.25;0.30;;;19.30;99.90;;;;;;6116698;22;20033;-83
2021/10/07 15:22:35;;;;;;;2.58;0.60;;;19.40;99.90;;;;;;6117646;22;20077;-83
2021/10/07 15:25:04;;;;;;;3.80;0.85;;;19.30;99.90;;;;;;6116243;22;20068;-83
2021/10/07 15:27:32;;;;;;;2.75;0.68;;;19.30;99.90;;;;;;6116513;22;20412;-83
2021/10/07 15:30:00;;;;;;;3.73;0.90;;;19.30;99.90;;;;;;6117479;23;20028;-83
2021/10/07 15:32:26;;;;;;;3.42;0.80;;;19.30;99.90;;;;;;6117111;22;20253;-84
2021/10/07 15:34:53;;;;;;;2.08;0.70;;;19.30;99.90;;;;;;6116682;22;20476;-83
2021/10/07 15:37:20;;;;;;;4.13;1.00;;;19.30;99.90;;;;;;6115606;23;20022;-82
2021/10/07 15:39:47;;;;;;;3.47;1.08;;;19.40;99.90;;;;;;6117183;22;20022;-84
2021/10/07 15:42:17;;;;;;;4.88;1.08;;;19.50;99.90;;;;;;6116724;23;20022;-83
2021/10/07 15:44:45;;;;;;;5.90;1.00;;;19.50;99.90;;;;;;6091383;23;20026;-83
2021/10/07 15:47:11;;;;;;;5.75;1.45;;;19.60;99.90;;;;;;6116750;22;20022;-83
2021/10/07 15:49:39;;;;;;;4.47;1.00;;;19.70;99.90;;;;;;6117180;22;20080;-82
2021/10/07 15:52:06;;;;;;;3.13;0.60;;;19.70;99.90;;;;;;6091385;23;20030;-84
2021/10/07 15:54:33;;;;;;;2.85;0.70;;;19.80;99.90;;;;;;6116734;22;20034;-83
2021/10/07 15:57:00;;;;;;;3.80;0.90;;;19.80;99.90;;;;;;6116638;23;20034;-83
2021/10/07 15:59:28;;;;;;;3.42;0.95;;;19.90;99.90;;;;;;6117443;22;20073;-83
2021/10/07 16:01:55;;;;;;;2.83;0.77;;;19.90;99.90;;;;;;6117416;23;20029;-83
2021/10/07 16:04:22;;;;;;;4.60;0.80;;;20.00;99.90;;;;;;6118737;22;20025;-84
2021/10/07 16:06:49;;;;;;;6.43;1.10;;;20.00;99.90;;;;;;6117523;22;20088;-84
2021/10/07 16:09:17;;;;;;;3.90;1.02;;;20.00;99.90;;;;;;6117871;23;20080;-83
2021/10/07 16:11:44;;;;;;;4.85;0.90;;;20.10;99.90;;;;;;6118098;23;20025;-84
2021/10/07 16:14:11;;;;;;;3.92;0.98;;;20.10;99.90;;;;;;6092520;22;20022;-83
2021/10/07 16:16:38;;;;;;;3.25;0.93;;;20.10;99.90;;;;;;6116904;22;20119;-82
2021/10/07 16:19:07;;;;;;;4.05;0.82;;;20.10;99.90;;;;;;6117968;23;20088;-84
2021/10/07 16:21:35;;;;;;;3.50;0.70;;;20.20;99.90;;;;;;6118207;23;20076;-85
2021/10/07 16:24:04;;;;;;;5.28;0.85;;;20.20;99.90;;;;;;6117707;23;20072;-84
2021/10/07 16:26:31;;;;;;;4.35;1.02;;;20.10;99.90;;;;;;6117850;22;20020;-82
2021/10/07 16:28:59;;;;;;;5.20;1.10;;;20.10;99.90;;;;;;6092893;22;20022;-83
2021/10/07 16:31:27;;;;;;;3.70;1.20;;;20.10;99.90;;;;;;6118631;22;20030;-83
2021/10/07 16:33:54;;;;;;;4.87;0.87;;;20.10;99.90;;;;;;6119865;22;20030;-84
2021/10/07 16:36:21;;;;;;;15.38;1.60;;;20.10;99.90;;;;;;6119868;22;20080;-84
2021/10/07 16:38:48;;;;;;;5.13;1.10;;;20.10;99.90;;;;;;6119454;22;20034;-84
2021/10/07 16:41:16;;;;;;;6.25;1.50;;;20.10;99.90;;;;;;6093520;23;20072;-85
2021/10/07 16:43:46;;;;;;;6.53;1.65;;;20.10;99.90;;;;;;6119536;22;20060;-83
2021/10/07 16:46:13;;;;;;;7.20;1.13;;;20.00;99.90;;;;;;6119138;23;20064;-84
2021/10/07 16:48:40;;;;;;;5.78;1.30;;;20.00;99.90;;;;;;6120559;22;20022;-83
2021/10/07 16:51:07;;;;;;;5.68;1.17;;;19.90;99.90;;;;;;6119666;23;20472;-84
2021/10/07 16:53:46;;;;;;;6.93;1.42;;;19.90;99.90;;;;;;6093282;23;20029;-83
2021/10/07 16:56:14;;;;;;;3.70;0.90;;;19.80;99.90;;;;;;6119714;22;20022;-84
2021/10/07 17:02:28;;;;;;;5.85;1.35;;;19.70;99.90;;;;;;6119991;23;20028;-86
2021/10/07 17:05:06;;;;;;;7.28;1.25;;;19.50;99.90;;;;;;6120000;23;20048;-85
2021/10/07 17:07:33;;;;;;;7.15;1.38;;;19.50;99.90;;;;;;6119040;22;20083;-83
2021/10/07 17:10:03;;;;;;;7.85;1.35;;;19.30;99.90;;;;;;6119501;22;20100;-84
2021/10/07 17:12:31;;;;;;;6.05;1.42;;;19.30;99.90;;;;;;6118602;23;20079;-85
2021/10/07 17:14:58;;;;;;;5.78;1.10;;;19.20;99.90;;;;;;6118968;22;20083;-85
2021/10/07 19:21:54;;;;;;;10.60;2.25;;;17.00;99.90;;;;;;6023684;23;20123;-83
2021/10/07 19:24:22;;;;;;;8.00;2.10;;;17.00;99.90;;;;;;6011672;23;20089;-85
2021/10/07 19:26:49;;;;;;;8.82;2.22;;;17.00;99.90;;;;;;6045185;23;20131;-83
2021/10/07 19:29:19;;;;;;;8.85;2.38;;;16.90;99.90;;;;;;6023443;23;20035;-86
2021/10/07 19:31:48;;;;;;;13.75;3.50;;;17.00;99.90;;;;;;6024757;23;20031;-82
2021/10/07 19:34:21;;;;;;;16.23;11.70;;;16.90;99.90;;;;;;6023711;23;20032;-84
2021/10/07 19:36:50;;;;;;;18.73;11.15;;;16.90;99.90;;;;;;6034531;23;20027;-82
2021/10/07 19:39:19;;;;;;;18.58;12.02;;;16.90;99.90;;;;;;6024238;23;20023;-85
2021/10/07 19:41:51;;;;;;;20.40;14.50;;;16.90;99.90;;;;;;6025071;23;20548;-84
2021/10/07 19:44:19;;;;;;;20.70;15.02;;;16.80;99.90;;;;;;6026242;23;20042;-84
2021/10/07 19:46:48;;;;;;;19.55;14.57;;;16.90;99.90;;;;;;6025402;23;20085;-88
2021/10/07 19:49:18;;;;;;;18.80;10.70;;;16.80;99.90;;;;;;6025387;23;20062;-86
2021/10/07 19:51:45;;;;;;;;;;;16.80;99.90;;;;;;6025715;23;20482;-86
2021/10/07 19:54:12;;;;;;;14.52;9.80;;;16.80;99.90;;;;;;6022691;23;19921;-88
2021/10/07 19:56:40;;;;;;;18.60;10.68;;;16.70;99.90;;;;;;6024609;23;20031;-86
2021/10/07 19:59:13;;;;;;;19.77;9.55;;;16.70;99.90;;;;;;6023845;23;20034;-86
2021/10/07 20:01:44;;;;;;;17.85;8.13;;;16.70;99.90;;;;;;6033791;23;20431;-85
2021/10/07 20:04:12;;;;;;;18.98;8.55;;;16.70;99.90;;;;;;6024401;23;20023;-86
2021/10/07 20:06:40;;;;;;;16.88;8.73;;;16.70;99.90;;;;;;6025047;23;20019;-85
2021/10/07 20:09:08;;;;;;;13.50;7.22;;;16.60;99.90;;;;;;6046307;23;20035;-86